Decoded Metar for PAMD (MIDDLETON ISLAND in AK, USA) (IATA:N/A) | Meteo·Mobile Aviation Weather
aviador You're here:

PAMD Decoded Metar

MIDDLETON ISLAND in AK, USA
Report Time2019-04-23 07:54:00
UTC Time2019-04-23 08:43:43
Flight Rules mvfr MVFR
Wind220° at 08 kt
W.Decomp.*RWY 20: 8.0 kt HW 0.3 kt RCW
RWY 13: 2.5 kt HW 7.6 kt RCW
Visibility9999 m
Phenomena:N/A
Clouds:Broken 018 Hf
Expected CloudBase > 1,200 ft AGL from Temp-Dew spread
Ceiling1,800 ft
Temp01°C (ISA -14)
Dew Point-2°C (81% RH)
AAT-4.1°C
QNH1003 hPa
Density Alt-1,234 ft
Elevation46 ft
Report Wrong Elevation
Raw Report
PAMD 230754Z AUTO 22008KT 10SM BKN018 01/M02 A2962 RMK AO2
FZRANO=

Extra information for PAMD:More info

Metar Taf Metar & Taf Last 4 Metars F.Rules Stats Wind Profile Meteogram Temp Stats Airport Information Weather charts Add Link Nearby VenuesMetar ALERT Operation Metar Decoded Social comments

AIRNAV info for PAMD